createdAt,value
2023-01-27T00:00:57.690Z,4.13
2023-01-27T00:03:25.158Z,5.13
2023-01-27T00:05:52.441Z,5.67
2023-01-27T00:08:19.797Z,4.23
2023-01-27T00:10:47.279Z,4.43
2023-01-27T00:13:27.155Z,4.60
2023-01-27T00:15:54.985Z,4.83
2023-01-27T00:18:23.622Z,5.27
2023-01-27T00:21:09.518Z,5.07
2023-01-27T00:23:55.407Z,3.97
2023-01-27T00:26:22.860Z,5.13
2023-01-27T00:28:50.169Z,5.30
2023-01-27T00:31:38.194Z,5.57
2023-01-27T00:34:11.832Z,4.80
2023-01-27T00:36:41.590Z,4.37
2023-01-27T00:39:11.223Z,4.10
2023-01-27T00:41:39.232Z,3.73
2023-01-27T00:44:12.749Z,4.10
2023-01-27T00:46:41.560Z,4.00
2023-01-27T00:49:10.848Z,4.17
2023-01-27T00:51:38.345Z,3.87
2023-01-27T00:54:05.860Z,4.90
2023-01-27T00:56:33.355Z,5.00
2023-01-27T00:59:01.078Z,3.17
2023-01-27T01:01:28.669Z,5.10
2023-01-27T01:03:56.578Z,5.00
2023-01-27T01:06:23.916Z,4.17
2023-01-27T01:08:54.310Z,3.87
2023-01-27T01:11:22.818Z,4.90
2023-01-27T01:13:50.716Z,4.33
2023-01-27T01:16:21.909Z,5.57
2023-01-27T01:18:49.595Z,4.47
2023-01-27T01:21:17.085Z,4.27
2023-01-27T01:23:45.736Z,4.43
2023-01-27T01:26:15.693Z,5.20
2023-01-27T01:28:45.061Z,4.17
2023-01-27T01:31:15.714Z,4.80
2023-01-27T01:33:43.131Z,4.70
2023-01-27T01:36:19.653Z,4.63
2023-01-27T01:38:47.728Z,4.07
2023-01-27T01:41:20.463Z,4.33
2023-01-27T01:43:49.435Z,5.00
2023-01-27T01:46:18.305Z,4.40
2023-01-27T01:49:01.343Z,4.73
2023-01-27T01:51:39.690Z,4.05
2023-01-27T01:54:17.835Z,3.83
2023-01-27T01:56:53.447Z,4.03
2023-01-27T01:59:28.519Z,3.80
2023-01-27T02:02:00.672Z,3.77
2023-01-27T02:04:34.542Z,4.57
2023-01-27T02:07:11.519Z,3.77
2023-01-27T02:09:39.380Z,5.10
2023-01-27T02:12:07.125Z,4.40
2023-01-27T02:14:37.771Z,4.97
2023-01-27T02:17:05.731Z,4.47
2023-01-27T02:20:07.328Z,6.63
2023-01-27T02:23:06.409Z,4.40
2023-01-27T02:26:00.637Z,4.43
2023-01-27T02:28:29.944Z,3.53
2023-01-27T02:30:57.852Z,4.93
2023-01-27T02:33:25.551Z,4.40
2023-01-27T02:36:14.634Z,4.00
2023-01-27T02:38:47.611Z,3.60
2023-01-27T02:43:52.821Z,3.83
2023-01-27T02:46:21.248Z,4.47
2023-01-27T02:48:48.551Z,5.13
2023-01-27T02:54:51.618Z,5.03
2023-01-27T02:57:20.183Z,6.23
2023-01-27T03:00:02.337Z,4.27
2023-01-27T03:02:30.572Z,3.90
2023-01-27T03:04:58.158Z,4.93
2023-01-27T03:07:25.971Z,5.10
2023-01-27T03:09:55.587Z,4.50
2023-01-27T03:12:23.248Z,4.97
2023-01-27T03:15:11.711Z,5.67
2023-01-27T03:17:58.202Z,6.43
2023-01-27T03:20:25.562Z,6.37
2023-01-27T03:22:52.874Z,4.57
2023-01-27T03:25:22.748Z,4.13
2023-01-27T03:27:50.965Z,5.40
2023-01-27T03:30:35.752Z,5.63
2023-01-27T03:33:11.250Z,5.07
2023-01-27T03:36:29.224Z,5.60
2023-01-27T03:39:15.600Z,4.73
2023-01-27T03:42:04.058Z,4.70
2023-01-27T03:44:50.095Z,5.63
2023-01-27T03:47:17.462Z,3.47
2023-01-27T03:49:44.740Z,4.17
2023-01-27T03:52:12.048Z,4.77
2023-01-27T03:54:39.321Z,4.40
2023-01-27T03:57:06.957Z,5.53
2023-01-27T03:59:35.935Z,6.03
2023-01-27T04:02:21.727Z,3.13
2023-01-27T04:05:07.591Z,4.43
2023-01-27T04:07:36.164Z,3.13
2023-01-27T04:10:04.942Z,5.97
2023-01-27T04:12:32.519Z,3.63
2023-01-27T04:15:00.103Z,4.33
2023-01-27T04:17:27.550Z,3.93
2023-01-27T04:19:54.783Z,4.70
2023-01-27T04:22:22.081Z,3.97
2023-01-27T04:24:50.328Z,4.43
2023-01-27T04:27:18.930Z,4.10
2023-01-27T04:29:46.260Z,3.20
2023-01-27T04:32:14.176Z,3.80
2023-01-27T04:34:42.174Z,4.40
2023-01-27T04:37:10.417Z,6.00
2023-01-27T04:39:37.868Z,4.60
2023-01-27T04:42:05.198Z,5.23
2023-01-27T04:44:32.544Z,4.63
2023-01-27T04:46:59.852Z,5.03
2023-01-27T04:49:27.416Z,5.17
2023-01-27T04:51:55.424Z,3.57
2023-01-27T04:54:22.773Z,4.07
2023-01-27T04:57:05.624Z,4.17
2023-01-27T04:59:33.218Z,5.70
2023-01-27T05:02:00.682Z,5.57
2023-01-27T05:04:28.040Z,3.73
2023-01-27T05:06:55.385Z,4.23
2023-01-27T05:09:22.946Z,5.27
2023-01-27T05:11:50.259Z,5.43
2023-01-27T05:14:17.669Z,5.27
2023-01-27T05:16:45.408Z,4.93
2023-01-27T05:19:13.063Z,5.23
2023-01-27T05:21:40.387Z,5.03
2023-01-27T05:24:07.958Z,4.70
2023-01-27T05:26:35.284Z,4.40
2023-01-27T05:29:02.674Z,4.63
2023-01-27T05:31:33.775Z,4.17
2023-01-27T05:34:02.178Z,3.97
2023-01-27T05:36:30.704Z,3.37
2023-01-27T05:38:59.046Z,4.37
2023-01-27T05:41:28.564Z,4.43
2023-01-27T05:43:56.565Z,4.77
2023-01-27T05:46:26.138Z,4.67
2023-01-27T05:48:55.959Z,5.20
2023-01-27T05:51:25.178Z,4.13
2023-01-27T05:53:53.879Z,4.37
2023-01-27T05:56:22.354Z,4.37
2023-01-27T05:58:49.947Z,5.63
2023-01-27T06:01:20.812Z,4.03
2023-01-27T06:03:49.213Z,4.27
2023-01-27T06:06:19.074Z,5.97
2023-01-27T06:08:46.960Z,3.73
2023-01-27T06:11:15.767Z,4.30
2023-01-27T06:13:43.137Z,5.00
2023-01-27T06:16:13.100Z,4.30
2023-01-27T06:18:41.067Z,4.67
2023-01-27T06:21:11.133Z,4.57
2023-01-27T06:23:39.317Z,5.33
2023-01-27T06:26:16.467Z,5.10
2023-01-27T06:28:44.731Z,3.97
2023-01-27T06:31:14.829Z,3.53
2023-01-27T06:33:42.590Z,3.23
2023-01-27T06:36:13.065Z,4.57
2023-01-27T06:38:40.568Z,5.20
2023-01-27T06:41:08.123Z,4.27
2023-01-27T06:43:35.517Z,4.63
2023-01-27T06:46:05.685Z,4.90
2023-01-27T06:48:33.836Z,5.30
2023-01-27T06:51:01.265Z,4.77
2023-01-27T06:53:28.739Z,5.03
2023-01-27T06:56:00.269Z,4.40
2023-01-27T06:58:28.396Z,3.22
2023-01-27T07:00:56.592Z,3.80
2023-01-27T07:03:24.433Z,3.33
2023-01-27T07:05:53.343Z,5.50
2023-01-27T07:08:20.716Z,4.37
2023-01-27T07:10:48.283Z,4.50
2023-01-27T07:13:16.141Z,4.70
2023-01-27T07:15:43.591Z,3.97
2023-01-27T07:18:13.712Z,4.00
2023-01-27T07:20:41.651Z,3.93
2023-01-27T07:23:10.166Z,3.87
2023-01-27T07:25:37.697Z,4.60
2023-01-27T07:28:05.985Z,4.97
2023-01-27T07:30:37.551Z,5.47
2023-01-27T07:33:11.234Z,5.15
2023-01-27T07:35:39.731Z,4.80
2023-01-27T07:38:07.518Z,3.40
2023-01-27T07:40:36.256Z,5.80
2023-01-27T07:43:04.151Z,4.13
2023-01-27T07:45:34.440Z,4.53
2023-01-27T07:48:03.161Z,4.67
2023-01-27T07:50:30.742Z,4.73
2023-01-27T07:53:02.928Z,5.20
2023-01-27T07:55:32.507Z,3.70
2023-01-27T07:58:00.114Z,4.67
2023-01-27T08:00:28.401Z,4.80
2023-01-27T08:02:57.077Z,4.97
2023-01-27T08:05:25.840Z,5.37
2023-01-27T08:07:54.732Z,5.07
2023-01-27T08:10:22.817Z,5.47
2023-01-27T08:12:50.244Z,4.37
2023-01-27T08:15:19.125Z,4.50
2023-01-27T08:17:57.759Z,4.20
2023-01-27T08:20:27.465Z,4.87
2023-01-27T08:22:54.827Z,4.33
2023-01-27T08:25:22.693Z,3.67
2023-01-27T08:27:55.118Z,3.97
2023-01-27T08:30:22.954Z,4.73
2023-01-27T08:32:50.380Z,3.50
2023-01-27T08:35:17.857Z,4.00
2023-01-27T08:37:49.301Z,3.93
2023-01-27T08:40:17.440Z,3.78
2023-01-27T08:42:44.921Z,3.97
2023-01-27T08:45:12.700Z,4.33
2023-01-27T08:47:39.963Z,3.10
2023-01-27T08:50:08.292Z,4.30
2023-01-27T08:52:35.709Z,4.33
2023-01-27T08:55:03.237Z,4.67
2023-01-27T08:57:32.563Z,4.13
2023-01-27T09:00:00.106Z,5.23
2023-01-27T09:02:27.660Z,5.40
2023-01-27T09:04:54.992Z,5.33
2023-01-27T09:07:22.298Z,5.23
2023-01-27T09:09:51.318Z,4.37
2023-01-27T09:12:23.217Z,4.57
2023-01-27T09:14:50.537Z,3.87
2023-01-27T09:17:19.983Z,5.13
2023-01-27T09:19:47.573Z,5.10
2023-01-27T09:22:14.891Z,5.73
2023-01-27T09:24:42.270Z,4.23
2023-01-27T09:27:09.556Z,6.07
2023-01-27T09:29:37.046Z,5.00
2023-01-27T09:32:04.647Z,5.73
2023-01-27T09:34:32.078Z,4.30
2023-01-27T09:37:08.435Z,6.77
2023-01-27T09:40:04.136Z,4.67
2023-01-27T09:43:14.999Z,4.40
2023-01-27T09:46:06.409Z,4.57
2023-01-27T09:48:56.300Z,5.97
2023-01-27T09:51:52.113Z,4.33
2023-01-27T09:55:00.468Z,3.53
2023-01-27T09:57:55.203Z,3.33
2023-01-27T10:01:27.263Z,4.67
2023-01-27T10:04:31.019Z,3.47
2023-01-27T10:07:28.337Z,4.80
2023-01-27T10:10:36.763Z,4.27
2023-01-27T10:13:43.863Z,5.10
2023-01-27T10:16:32.594Z,4.80
2023-01-27T10:19:47.645Z,4.77
2023-01-27T10:22:30.363Z,5.10
2023-01-27T10:25:38.738Z,4.70
2023-01-27T10:28:13.946Z,4.57
2023-01-27T10:30:53.541Z,4.60
2023-01-27T10:33:27.775Z,5.07
2023-01-27T10:36:01.338Z,4.40
2023-01-27T10:38:37.754Z,4.90
2023-01-27T10:41:30.056Z,3.30
2023-01-27T10:44:34.754Z,4.13
2023-01-27T10:47:29.961Z,4.93
2023-01-27T10:50:03.132Z,5.13
2023-01-27T10:52:46.663Z,3.73
2023-01-27T10:55:21.788Z,7.13
2023-01-27T10:58:02.267Z,4.87
2023-01-27T11:01:14.038Z,4.37
2023-01-27T11:04:10.967Z,4.10
2023-01-27T11:06:41.951Z,4.40
2023-01-27T11:09:29.011Z,4.73
2023-01-27T11:12:05.527Z,4.43
2023-01-27T11:14:45.012Z,6.20
2023-01-27T11:17:32.892Z,5.77
2023-01-27T11:20:31.375Z,5.00
2023-01-27T11:23:15.310Z,5.57
2023-01-27T11:26:13.471Z,4.63
2023-01-27T11:29:18.028Z,5.17
2023-01-27T11:32:19.639Z,5.90
2023-01-27T11:35:02.772Z,6.28
2023-01-27T11:37:40.251Z,6.27
2023-01-27T11:40:19.485Z,5.80
2023-01-27T11:42:50.068Z,7.83
2023-01-27T11:45:20.981Z,5.72
2023-01-27T11:47:52.656Z,5.87
2023-01-27T11:50:22.117Z,6.78
2023-01-27T11:52:54.981Z,6.50
2023-01-27T11:55:25.795Z,5.33
2023-01-27T11:57:58.921Z,5.83
2023-01-27T12:00:38.473Z,5.70
2023-01-27T12:03:18.945Z,5.80
2023-01-27T12:05:55.685Z,5.70
2023-01-27T12:08:44.959Z,7.37
2023-01-27T12:11:21.573Z,5.77
2023-01-27T12:14:13.234Z,5.13
2023-01-27T12:16:51.845Z,6.50
2023-01-27T12:19:35.807Z,5.67
2023-01-27T12:22:09.940Z,4.67
2023-01-27T12:24:46.008Z,5.93
2023-01-27T12:27:26.291Z,6.40
2023-01-27T12:30:04.121Z,5.17
2023-01-27T12:32:43.161Z,5.53
2023-01-27T12:35:48.109Z,5.47
2023-01-27T12:38:24.109Z,3.83
2023-01-27T12:41:02.624Z,5.07
2023-01-27T12:43:29.993Z,4.07
2023-01-27T12:46:20.024Z,4.23
2023-01-27T12:49:13.292Z,4.63
2023-01-27T12:51:50.630Z,4.70
2023-01-27T12:54:23.461Z,4.20
2023-01-27T12:56:55.231Z,4.13
2023-01-27T12:59:25.581Z,4.18
2023-01-27T13:02:15.854Z,3.93
2023-01-27T13:04:44.219Z,5.40
2023-01-27T13:07:17.424Z,4.83
2023-01-27T13:10:03.641Z,4.93
2023-01-27T13:12:36.657Z,5.03
2023-01-27T13:15:16.150Z,4.30
2023-01-27T13:17:54.019Z,3.93
2023-01-27T13:20:30.609Z,3.23
2023-01-27T13:23:02.434Z,5.43
2023-01-27T13:25:44.790Z,3.55
2023-01-27T13:28:18.605Z,3.90
2023-01-27T13:30:52.488Z,4.70
2023-01-27T13:33:46.146Z,4.40
2023-01-27T13:36:40.941Z,3.53
2023-01-27T13:39:56.283Z,3.77
2023-01-27T13:42:51.695Z,3.30
2023-01-27T13:45:20.687Z,3.90
2023-01-27T13:48:04.147Z,4.03
2023-01-27T13:50:39.369Z,3.67
2023-01-27T13:53:14.901Z,3.30
2023-01-27T13:56:37.791Z,3.03
2023-01-27T14:02:35.897Z,2.83
2023-01-27T14:05:28.210Z,3.30
2023-01-27T14:11:16.457Z,3.43
2023-01-27T14:14:06.425Z,4.10
2023-01-27T14:16:52.685Z,3.83
2023-01-27T14:20:09.178Z,3.50
2023-01-27T14:23:05.832Z,3.40
2023-01-27T14:25:52.627Z,3.77
2023-01-27T14:28:35.808Z,4.03
2023-01-27T14:31:19.112Z,3.87
2023-01-27T14:34:13.230Z,4.67
2023-01-27T14:36:55.305Z,3.20
2023-01-27T14:39:45.742Z,2.92
2023-01-27T14:42:33.563Z,3.77
2023-01-27T14:45:20.756Z,3.43
2023-01-27T14:48:20.418Z,3.27
2023-01-27T14:51:09.228Z,3.53
2023-01-27T14:54:21.160Z,2.97
2023-01-27T14:57:14.004Z,3.28
2023-01-27T15:00:09.096Z,3.30
2023-01-27T15:32:38.890Z,20.43
2023-01-27T15:35:44.963Z,24.53
2023-01-27T15:38:21.141Z,37.00
2023-01-27T15:40:58.499Z,34.60
2023-01-27T15:43:29.496Z,28.63
2023-01-27T15:45:58.374Z,25.57
2023-01-27T15:48:33.169Z,23.47
2023-01-27T15:51:06.919Z,10.97
2023-01-27T15:53:38.147Z,17.13
2023-01-27T15:56:06.617Z,20.65
2023-01-27T15:58:50.574Z,13.37
2023-01-27T16:01:27.767Z,20.60
2023-01-27T16:04:26.677Z,18.33
2023-01-27T16:07:02.630Z,14.30
2023-01-27T16:09:49.057Z,12.33
2023-01-27T16:12:35.822Z,4.87
2023-01-27T16:15:33.369Z,3.40
2023-01-27T16:18:28.386Z,3.53
2023-01-27T16:21:08.391Z,2.67
2023-01-27T16:23:58.661Z,3.07
2023-01-27T16:26:40.099Z,3.23
2023-01-27T16:29:45.642Z,2.75
2023-01-27T16:32:19.848Z,2.83
2023-01-27T16:34:51.806Z,1.93
2023-01-27T16:37:29.297Z,2.75
2023-01-27T16:40:06.244Z,2.37
2023-01-27T16:42:37.495Z,2.40
2023-01-27T16:45:17.516Z,2.78
2023-01-27T16:47:50.037Z,2.70
2023-01-27T16:50:39.137Z,2.87
2023-01-27T16:53:20.074Z,2.53
2023-01-27T16:55:59.847Z,2.17
2023-01-27T16:58:39.860Z,2.83
2023-01-27T17:01:31.283Z,2.23
2023-01-27T17:04:17.739Z,3.53
2023-01-27T17:06:46.513Z,2.30
2023-01-27T17:09:31.792Z,3.30
2023-01-27T17:11:59.701Z,2.83
2023-01-27T17:14:46.825Z,2.43
2023-01-27T17:17:20.869Z,2.03
2023-01-27T17:19:50.665Z,3.30
2023-01-27T17:22:24.552Z,2.97
2023-01-27T17:25:05.043Z,3.33
2023-01-27T17:27:41.574Z,2.90
2023-01-27T17:30:19.116Z,4.07
2023-01-27T17:32:50.388Z,3.87
2023-01-27T17:35:27.055Z,2.85
2023-01-27T17:38:12.640Z,4.00
2023-01-27T17:40:43.232Z,3.17
2023-01-27T17:43:32.082Z,4.33
2023-01-27T17:46:26.639Z,4.27
2023-01-27T17:49:12.219Z,4.23
2023-01-27T17:51:43.939Z,4.87
2023-01-27T17:54:43.584Z,4.43
2023-01-27T17:57:27.845Z,4.20
2023-01-27T18:00:11.640Z,3.80
2023-01-27T18:02:53.422Z,4.13
2023-01-27T18:05:35.094Z,3.85
2023-01-27T18:08:05.020Z,4.43
2023-01-27T18:10:45.849Z,4.90
2023-01-27T18:13:37.774Z,4.63
2023-01-27T18:16:19.881Z,4.22
2023-01-27T18:18:48.189Z,5.82
2023-01-27T18:21:26.924Z,4.30
2023-01-27T18:23:57.146Z,5.23
2023-01-27T18:26:41.670Z,5.23
2023-01-27T18:29:20.285Z,4.63
2023-01-27T18:31:54.860Z,5.30
2023-01-27T18:34:29.315Z,4.80
2023-01-27T18:37:03.660Z,5.17
2023-01-27T18:39:39.634Z,6.50
2023-01-27T18:42:19.049Z,8.90
2023-01-27T18:44:49.508Z,6.83
2023-01-27T18:47:35.525Z,5.77
2023-01-27T18:50:18.262Z,5.77
2023-01-27T18:52:46.556Z,5.60
2023-01-27T18:55:26.489Z,5.83
2023-01-27T18:57:55.965Z,5.80
2023-01-27T19:00:35.033Z,5.33
2023-01-27T19:03:02.958Z,5.10
2023-01-27T19:05:34.996Z,5.40
2023-01-27T19:10:34.764Z,4.33
2023-01-27T19:13:04.116Z,5.65
2023-01-27T19:15:34.190Z,4.73
2023-01-27T19:18:06.193Z,6.27
2023-01-27T19:23:00.737Z,5.30
2023-01-27T19:25:31.146Z,5.70
2023-01-27T19:28:04.344Z,5.07
2023-01-27T19:30:37.217Z,5.43
2023-01-27T19:33:18.612Z,6.73
2023-01-27T19:35:53.553Z,7.05
2023-01-27T19:38:22.880Z,7.90
2023-01-27T19:40:50.407Z,6.40
2023-01-27T19:43:17.781Z,6.00
2023-01-27T19:45:47.627Z,6.30
2023-01-27T19:48:20.213Z,6.73
2023-01-27T19:50:48.186Z,6.60
2023-01-27T19:53:17.171Z,6.33
2023-01-27T19:55:46.100Z,7.33
2023-01-27T19:58:31.645Z,7.17
2023-01-27T20:00:59.250Z,7.40
2023-01-27T20:03:26.603Z,6.47
2023-01-27T20:05:53.966Z,5.77
2023-01-27T20:08:22.948Z,7.33
2023-01-27T20:10:51.311Z,6.10
2023-01-27T20:13:20.380Z,7.57
2023-01-27T20:15:48.093Z,7.33
2023-01-27T20:18:17.503Z,7.17
2023-01-27T20:20:46.666Z,6.87
2023-01-27T20:23:17.559Z,6.97
2023-01-27T20:25:44.830Z,6.77
2023-01-27T20:28:12.857Z,6.73
2023-01-27T20:30:41.607Z,7.07
2023-01-27T20:33:10.240Z,6.83
2023-01-27T20:35:37.821Z,6.57
2023-01-27T20:38:05.135Z,8.03
2023-01-27T20:40:32.495Z,5.93
2023-01-27T20:43:00.834Z,6.67
2023-01-27T20:45:28.177Z,8.07
2023-01-27T20:47:56.152Z,6.80
2023-01-27T20:50:26.046Z,6.97
2023-01-27T20:52:53.845Z,9.03
2023-01-27T20:55:21.134Z,7.80
2023-01-27T20:57:49.107Z,6.17
2023-01-27T21:00:18.339Z,7.93
2023-01-27T21:02:46.345Z,6.97
2023-01-27T21:05:14.962Z,6.70
2023-01-27T21:07:42.744Z,6.13
2023-01-27T21:10:11.093Z,7.37
2023-01-27T21:12:38.447Z,7.00
2023-01-27T21:15:09.625Z,6.37
2023-01-27T21:17:37.449Z,6.72
2023-01-27T21:20:05.501Z,7.63
2023-01-27T21:22:34.480Z,8.40
2023-01-27T21:25:02.071Z,6.93
2023-01-27T21:27:29.499Z,6.57
2023-01-27T21:29:56.813Z,7.53
2023-01-27T21:32:24.094Z,6.80
2023-01-27T21:34:51.379Z,6.27
2023-01-27T21:37:18.653Z,6.47
2023-01-27T21:39:45.963Z,5.27
2023-01-27T21:42:22.972Z,7.27
2023-01-27T21:45:09.028Z,6.30
2023-01-27T21:47:36.279Z,6.40
2023-01-27T21:50:04.445Z,7.13
2023-01-27T21:52:37.523Z,6.73
2023-01-27T21:55:07.421Z,6.43
2023-01-27T21:57:35.328Z,6.40
2023-01-27T22:00:05.299Z,5.60
2023-01-27T22:02:40.482Z,5.77
2023-01-27T22:05:09.555Z,6.50
2023-01-27T22:07:38.431Z,5.70
2023-01-27T22:10:16.527Z,6.70
2023-01-27T22:12:44.616Z,6.80
2023-01-27T22:15:14.467Z,6.70
2023-01-27T22:17:42.349Z,6.10
2023-01-27T22:20:13.033Z,7.83
2023-01-27T22:22:40.455Z,6.77
2023-01-27T22:25:09.386Z,5.47
2023-01-27T22:27:41.206Z,6.10
2023-01-27T22:30:14.640Z,6.68
2023-01-27T22:32:42.211Z,6.63
2023-01-27T22:35:09.945Z,6.77
2023-01-27T22:37:37.885Z,6.60
2023-01-27T22:40:08.827Z,5.43
2023-01-27T22:42:37.129Z,7.10
2023-01-27T22:45:05.137Z,7.27
2023-01-27T22:47:32.472Z,7.60
2023-01-27T22:49:59.779Z,6.33
2023-01-27T22:52:27.123Z,6.47
2023-01-27T22:54:54.417Z,6.53
2023-01-27T22:57:21.907Z,6.23
2023-01-27T22:59:49.217Z,5.93
2023-01-27T23:02:16.501Z,5.90
2023-01-27T23:04:43.787Z,6.00
2023-01-27T23:07:11.067Z,6.37
2023-01-27T23:09:38.405Z,5.83
2023-01-27T23:12:05.929Z,5.70
2023-01-27T23:14:33.250Z,5.97
2023-01-27T23:17:00.752Z,4.70
2023-01-27T23:19:28.617Z,4.47
2023-01-27T23:21:55.946Z,5.00
2023-01-27T23:24:23.377Z,3.33
2023-01-27T23:26:50.874Z,3.60
2023-01-27T23:29:24.819Z,3.70
2023-01-27T23:31:53.231Z,3.73
2023-01-27T23:34:20.640Z,3.33
2023-01-27T23:36:48.670Z,3.50
2023-01-27T23:39:16.753Z,3.83
2023-01-27T23:41:44.067Z,3.10
2023-01-27T23:44:12.512Z,3.33
2023-01-27T23:46:40.565Z,3.47
2023-01-27T23:49:10.911Z,2.60
2023-01-27T23:51:38.226Z,2.63
2023-01-27T23:54:05.599Z,3.40
2023-01-27T23:56:32.952Z,2.50
2023-01-27T23:59:00.241Z,3.30
